sensor_id;sensor_type;location;lat;lon;timestamp;temperature;humidity
582;DHT22;277;50.074;8.436;2022-07-10T00:02:19;16.20;99.90
582;DHT22;277;50.074;8.436;2022-07-10T00:04:47;16.10;99.90
582;DHT22;277;50.074;8.436;2022-07-10T00:07:15;16.00;99.90
582;DHT22;277;50.074;8.436;2022-07-10T00:09:44;15.90;99.90
582;DHT22;277;50.074;8.436;2022-07-10T00:12:12;15.90;99.90
582;DHT22;277;50.074;8.436;2022-07-10T00:14:40;15.90;99.90
582;DHT22;277;50.074;8.436;2022-07-10T00:17:08;15.80;99.90
582;DHT22;277;50.074;8.436;2022-07-10T00:19:35;15.70;99.90
582;DHT22;277;50.074;8.436;2022-07-10T00:22:03;15.70;99.90
582;DHT22;277;50.074;8.436;2022-07-10T00:24:31;15.70;99.90
582;DHT22;277;50.074;8.436;2022-07-10T00:27:00;15.70;99.90
582;DHT22;277;50.074;8.436;2022-07-10T00:29:28;15.80;99.90
582;DHT22;277;50.074;8.436;2022-07-10T00:31:56;15.80;99.90
582;DHT22;277;50.074;8.436;2022-07-10T00:34:23;15.80;99.90
582;DHT22;277;50.074;8.436;2022-07-10T00:36:51;15.80;99.90
582;DHT22;277;50.074;8.436;2022-07-10T00:39:19;15.80;99.90
582;DHT22;277;50.074;8.436;2022-07-10T00:41:47;15.80;99.90
582;DHT22;277;50.074;8.436;2022-07-10T00:44:16;15.80;99.90
582;DHT22;277;50.074;8.436;2022-07-10T00:46:43;15.80;99.90
582;DHT22;277;50.074;8.436;2022-07-10T00:49:11;15.70;99.90
582;DHT22;277;50.074;8.436;2022-07-10T00:51:39;15.70;99.90
582;DHT22;277;50.074;8.436;2022-07-10T00:54:07;15.70;99.90
582;DHT22;277;50.074;8.436;2022-07-10T00:56:35;15.70;99.90
582;DHT22;277;50.074;8.436;2022-07-10T00:59:03;15.60;99.90
582;DHT22;277;50.074;8.436;2022-07-10T01:01:33;15.70;99.90
582;DHT22;277;50.074;8.436;2022-07-10T01:04:01;15.60;99.90
582;DHT22;277;50.074;8.436;2022-07-10T01:06:29;15.60;99.90
582;DHT22;277;50.074;8.436;2022-07-10T01:08:57;15.60;99.90
582;DHT22;277;50.074;8.436;2022-07-10T01:11:25;15.60;99.90
582;DHT22;277;50.074;8.436;2022-07-10T01:13:52;15.60;99.90
582;DHT22;277;50.074;8.436;2022-07-10T01:16:20;15.50;99.90
582;DHT22;277;50.074;8.436;2022-07-10T01:18:50;15.50;99.90
582;DHT22;277;50.074;8.436;2022-07-10T01:21:26;15.40;99.90
582;DHT22;277;50.074;8.436;2022-07-10T01:23:54;15.40;99.90
582;DHT22;277;50.074;8.436;2022-07-10T01:26:21;15.40;99.90
582;DHT22;277;50.074;8.436;2022-07-10T01:28:50;15.30;99.90
582;DHT22;277;50.074;8.436;2022-07-10T01:31:18;15.30;99.90
582;DHT22;277;50.074;8.436;2022-07-10T01:33:46;15.30;99.90
582;DHT22;277;50.074;8.436;2022-07-10T01:36:14;15.30;99.90
582;DHT22;277;50.074;8.436;2022-07-10T01:38:43;15.30;99.90
582;DHT22;277;50.074;8.436;2022-07-10T01:41:11;15.30;99.90
582;DHT22;277;50.074;8.436;2022-07-10T01:43:39;15.30;99.90
582;DHT22;277;50.074;8.436;2022-07-10T01:46:08;15.30;99.90
582;DHT22;277;50.074;8.436;2022-07-10T01:48:38;15.30;99.90
582;DHT22;277;50.074;8.436;2022-07-10T01:51:07;15.30;99.90
582;DHT22;277;50.074;8.436;2022-07-10T01:53:35;15.30;99.90
582;DHT22;277;50.074;8.436;2022-07-10T01:56:05;15.30;99.90
582;DHT22;277;50.074;8.436;2022-07-10T01:58:33;15.30;99.90
582;DHT22;277;50.074;8.436;2022-07-10T02:01:02;15.30;99.90
582;DHT22;277;50.074;8.436;2022-07-10T02:03:30;15.30;99.90
582;DHT22;277;50.074;8.436;2022-07-10T02:06:15;15.20;99.90
582;DHT22;277;50.074;8.436;2022-07-10T02:08:43;15.10;99.90
582;DHT22;277;50.074;8.436;2022-07-10T02:11:12;15.00;99.90
582;DHT22;277;50.074;8.436;2022-07-10T02:13:40;14.90;99.90
582;DHT22;277;50.074;8.436;2022-07-10T02:16:08;14.90;99.90
582;DHT22;277;50.074;8.436;2022-07-10T02:18:37;14.90;99.90
582;DHT22;277;50.074;8.436;2022-07-10T02:21:06;14.90;99.90
582;DHT22;277;50.074;8.436;2022-07-10T02:23:34;14.90;99.90
582;DHT22;277;50.074;8.436;2022-07-10T02:26:02;14.90;99.90
582;DHT22;277;50.074;8.436;2022-07-10T02:28:31;14.80;99.90
582;DHT22;277;50.074;8.436;2022-07-10T02:30:58;14.80;99.90
582;DHT22;277;50.074;8.436;2022-07-10T02:33:26;14.70;99.90
582;DHT22;277;50.074;8.436;2022-07-10T02:35:54;14.70;99.90
582;DHT22;277;50.074;8.436;2022-07-10T02:38:22;14.70;99.90
582;DHT22;277;50.074;8.436;2022-07-10T02:40:49;14.70;99.90
582;DHT22;277;50.074;8.436;2022-07-10T02:43:17;14.70;99.90
582;DHT22;277;50.074;8.436;2022-07-10T02:45:46;14.70;99.90
582;DHT22;277;50.074;8.436;2022-07-10T02:48:14;14.70;99.90
582;DHT22;277;50.074;8.436;2022-07-10T02:50:42;14.80;99.90
582;DHT22;277;50.074;8.436;2022-07-10T02:53:10;14.80;99.90
582;DHT22;277;50.074;8.436;2022-07-10T02:55:37;14.90;99.90
582;DHT22;277;50.074;8.436;2022-07-10T02:58:05;14.90;99.90
582;DHT22;277;50.074;8.436;2022-07-10T03:00:33;14.90;99.90
582;DHT22;277;50.074;8.436;2022-07-10T03:03:02;14.90;99.90
582;DHT22;277;50.074;8.436;2022-07-10T03:05:30;14.80;99.90
582;DHT22;277;50.074;8.436;2022-07-10T03:07:58;14.80;99.90
582;DHT22;277;50.074;8.436;2022-07-10T03:10:25;14.80;99.90
582;DHT22;277;50.074;8.436;2022-07-10T03:12:53;14.80;99.90
582;DHT22;277;50.074;8.436;2022-07-10T03:15:21;14.70;99.90
582;DHT22;277;50.074;8.436;2022-07-10T03:17:49;14.60;99.90
582;DHT22;277;50.074;8.436;2022-07-10T03:20:18;14.50;99.90
582;DHT22;277;50.074;8.436;2022-07-10T03:22:46;14.40;99.90
582;DHT22;277;50.074;8.436;2022-07-10T03:25:14;14.30;99.90
582;DHT22;277;50.074;8.436;2022-07-10T03:27:41;14.20;99.90
582;DHT22;277;50.074;8.436;2022-07-10T03:30:09;14.30;99.90
582;DHT22;277;50.074;8.436;2022-07-10T03:32:37;14.20;99.90
582;DHT22;277;50.074;8.436;2022-07-10T03:35:05;14.20;99.90
582;DHT22;277;50.074;8.436;2022-07-10T03:37:34;14.20;99.90
582;DHT22;277;50.074;8.436;2022-07-10T03:40:02;14.10;99.90
582;DHT22;277;50.074;8.436;2022-07-10T03:42:30;14.10;99.90
582;DHT22;277;50.074;8.436;2022-07-10T03:44:58;14.10;99.90
582;DHT22;277;50.074;8.436;2022-07-10T03:47:26;14.10;99.90
582;DHT22;277;50.074;8.436;2022-07-10T03:49:54;14.10;99.90
582;DHT22;277;50.074;8.436;2022-07-10T03:52:21;14.10;99.90
582;DHT22;277;50.074;8.436;2022-07-10T03:54:50;14.10;99.90
582;DHT22;277;50.074;8.436;2022-07-10T03:57:20;14.10;99.90
582;DHT22;277;50.074;8.436;2022-07-10T04:00:06;14.10;99.90
582;DHT22;277;50.074;8.436;2022-07-10T04:02:34;14.20;99.90
582;DHT22;277;50.074;8.436;2022-07-10T04:05:04;14.20;99.90
582;DHT22;277;50.074;8.436;2022-07-10T04:07:32;14.30;99.90
582;DHT22;277;50.074;8.436;2022-07-10T04:10:02;14.20;99.90
582;DHT22;277;50.074;8.436;2022-07-10T04:12:31;14.10;99.90
582;DHT22;277;50.074;8.436;2022-07-10T04:14:59;14.10;99.90
582;DHT22;277;50.074;8.436;2022-07-10T04:17:27;14.10;99.90
582;DHT22;277;50.074;8.436;2022-07-10T04:19:55;14.00;99.90
582;DHT22;277;50.074;8.436;2022-07-10T04:22:23;14.00;99.90
582;DHT22;277;50.074;8.436;2022-07-10T04:24:51;14.00;99.90
582;DHT22;277;50.074;8.436;2022-07-10T04:27:20;14.00;99.90
582;DHT22;277;50.074;8.436;2022-07-10T04:29:48;14.00;99.90
582;DHT22;277;50.074;8.436;2022-07-10T04:32:16;14.00;99.90
582;DHT22;277;50.074;8.436;2022-07-10T04:34:44;14.00;99.90
582;DHT22;277;50.074;8.436;2022-07-10T04:37:11;14.00;99.90
582;DHT22;277;50.074;8.436;2022-07-10T04:39:39;14.00;99.90
582;DHT22;277;50.074;8.436;2022-07-10T04:42:07;14.00;99.90
582;DHT22;277;50.074;8.436;2022-07-10T04:44:36;14.10;99.90
582;DHT22;277;50.074;8.436;2022-07-10T04:47:05;14.10;99.90
582;DHT22;277;50.074;8.436;2022-07-10T04:49:33;14.10;99.90
582;DHT22;277;50.074;8.436;2022-07-10T04:52:01;14.20;99.90
582;DHT22;277;50.074;8.436;2022-07-10T04:54:29;14.20;99.90
582;DHT22;277;50.074;8.436;2022-07-10T04:56:56;14.30;99.90
582;DHT22;277;50.074;8.436;2022-07-10T04:59:24;14.40;99.90
582;DHT22;277;50.074;8.436;2022-07-10T05:01:53;14.40;99.90
582;DHT22;277;50.074;8.436;2022-07-10T05:04:21;14.50;99.90
582;DHT22;277;50.074;8.436;2022-07-10T05:06:49;14.50;99.90
582;DHT22;277;50.074;8.436;2022-07-10T05:09:17;14.50;99.90
582;DHT22;277;50.074;8.436;2022-07-10T05:11:46;14.60;99.90
582;DHT22;277;50.074;8.436;2022-07-10T05:14:14;14.60;99.90
582;DHT22;277;50.074;8.436;2022-07-10T05:16:42;14.60;99.90
582;DHT22;277;50.074;8.436;2022-07-10T05:19:11;14.60;99.90
582;DHT22;277;50.074;8.436;2022-07-10T05:21:39;14.50;99.90
582;DHT22;277;50.074;8.436;2022-07-10T05:24:07;14.50;99.90
582;DHT22;277;50.074;8.436;2022-07-10T05:26:35;14.60;99.90
582;DHT22;277;50.074;8.436;2022-07-10T05:29:03;14.70;99.90
582;DHT22;277;50.074;8.436;2022-07-10T05:31:31;14.70;99.90
582;DHT22;277;50.074;8.436;2022-07-10T05:33:59;14.70;99.90
582;DHT22;277;50.074;8.436;2022-07-10T05:36:28;14.80;99.90
582;DHT22;277;50.074;8.436;2022-07-10T05:38:56;14.80;99.90
582;DHT22;277;50.074;8.436;2022-07-10T05:41:24;14.90;99.90
582;DHT22;277;50.074;8.436;2022-07-10T05:43:51;15.00;99.90
582;DHT22;277;50.074;8.436;2022-07-10T05:46:19;15.00;99.90
582;DHT22;277;50.074;8.436;2022-07-10T05:48:47;15.00;99.90
582;DHT22;277;50.074;8.436;2022-07-10T05:51:15;15.00;99.90
582;DHT22;277;50.074;8.436;2022-07-10T05:54:04;15.00;99.90
582;DHT22;277;50.074;8.436;2022-07-10T05:56:32;15.10;99.90
582;DHT22;277;50.074;8.436;2022-07-10T05:59:00;15.20;99.90
582;DHT22;277;50.074;8.436;2022-07-10T06:01:28;15.10;99.90
582;DHT22;277;50.074;8.436;2022-07-10T06:03:56;15.30;99.90
582;DHT22;277;50.074;8.436;2022-07-10T06:06:24;15.30;99.90
582;DHT22;277;50.074;8.436;2022-07-10T06:08:52;15.40;99.90
582;DHT22;277;50.074;8.436;2022-07-10T06:11:21;15.50;99.90
582;DHT22;277;50.074;8.436;2022-07-10T06:13:48;15.60;99.90
582;DHT22;277;50.074;8.436;2022-07-10T06:16:16;15.70;99.90
582;DHT22;277;50.074;8.436;2022-07-10T06:18:44;15.70;99.90
582;DHT22;277;50.074;8.436;2022-07-10T06:21:12;15.70;99.90
582;DHT22;277;50.074;8.436;2022-07-10T06:23:40;15.70;99.90
582;DHT22;277;50.074;8.436;2022-07-10T06:26:08;15.80;99.90
582;DHT22;277;50.074;8.436;2022-07-10T06:28:37;15.90;99.90
582;DHT22;277;50.074;8.436;2022-07-10T06:31:06;15.70;99.90
582;DHT22;277;50.074;8.436;2022-07-10T06:33:34;15.80;99.90
582;DHT22;277;50.074;8.436;2022-07-10T06:36:03;15.60;99.90
582;DHT22;277;50.074;8.436;2022-07-10T06:38:31;15.60;99.90
582;DHT22;277;50.074;8.436;2022-07-10T06:40:58;15.70;99.90
582;DHT22;277;50.074;8.436;2022-07-10T06:43:26;15.60;99.90
582;DHT22;277;50.074;8.436;2022-07-10T06:45:56;15.70;99.90
582;DHT22;277;50.074;8.436;2022-07-10T06:48:23;15.90;99.90
582;DHT22;277;50.074;8.436;2022-07-10T06:50:51;16.20;99.90
582;DHT22;277;50.074;8.436;2022-07-10T06:53:19;16.40;99.90
582;DHT22;277;50.074;8.436;2022-07-10T06:55:50;16.50;99.90
582;DHT22;277;50.074;8.436;2022-07-10T06:58:18;16.70;99.90
582;DHT22;277;50.074;8.436;2022-07-10T07:00:46;16.90;99.90
582;DHT22;277;50.074;8.436;2022-07-10T07:03:15;17.00;99.90
582;DHT22;277;50.074;8.436;2022-07-10T07:05:43;17.00;99.90
582;DHT22;277;50.074;8.436;2022-07-10T07:08:11;17.00;99.90
582;DHT22;277;50.074;8.436;2022-07-10T07:10:40;17.10;99.90
582;DHT22;277;50.074;8.436;2022-07-10T07:13:08;17.30;99.90
582;DHT22;277;50.074;8.436;2022-07-10T07:15:36;17.40;99.90
582;DHT22;277;50.074;8.436;2022-07-10T07:18:08;17.70;99.90
582;DHT22;277;50.074;8.436;2022-07-10T07:20:40;17.80;99.90
582;DHT22;277;50.074;8.436;2022-07-10T07:23:26;17.90;99.90
582;DHT22;277;50.074;8.436;2022-07-10T07:25:53;17.80;99.90
582;DHT22;277;50.074;8.436;2022-07-10T07:28:22;17.70;99.90
582;DHT22;277;50.074;8.436;2022-07-10T07:30:50;17.60;99.90
582;DHT22;277;50.074;8.436;2022-07-10T07:33:18;17.50;99.90
582;DHT22;277;50.074;8.436;2022-07-10T07:35:47;17.50;99.90
582;DHT22;277;50.074;8.436;2022-07-10T07:38:15;17.60;99.90
582;DHT22;277;50.074;8.436;2022-07-10T07:40:44;17.70;99.90
582;DHT22;277;50.074;8.436;2022-07-10T07:43:11;17.80;99.90
582;DHT22;277;50.074;8.436;2022-07-10T07:45:39;17.90;99.90
582;DHT22;277;50.074;8.436;2022-07-10T07:48:07;18.00;99.90
582;DHT22;277;50.074;8.436;2022-07-10T07:50:35;18.10;99.90
582;DHT22;277;50.074;8.436;2022-07-10T07:53:05;18.00;99.90
582;DHT22;277;50.074;8.436;2022-07-10T07:55:33;17.70;99.90
582;DHT22;277;50.074;8.436;2022-07-10T07:58:02;17.80;99.90
582;DHT22;277;50.074;8.436;2022-07-10T08:00:30;17.80;99.90
582;DHT22;277;50.074;8.436;2022-07-10T08:02:58;17.40;99.90
582;DHT22;277;50.074;8.436;2022-07-10T08:05:27;17.30;99.90
582;DHT22;277;50.074;8.436;2022-07-10T08:07:56;17.50;99.90
582;DHT22;277;50.074;8.436;2022-07-10T08:10:26;17.70;99.90
582;DHT22;277;50.074;8.436;2022-07-10T08:12:54;18.00;99.90
582;DHT22;277;50.074;8.436;2022-07-10T08:15:22;18.20;99.90
582;DHT22;277;50.074;8.436;2022-07-10T08:17:51;18.30;99.90
582;DHT22;277;50.074;8.436;2022-07-10T08:20:19;18.40;99.90
582;DHT22;277;50.074;8.436;2022-07-10T08:22:47;18.30;99.90
582;DHT22;277;50.074;8.436;2022-07-10T08:25:22;18.30;99.90
582;DHT22;277;50.074;8.436;2022-07-10T08:27:52;18.10;99.90
582;DHT22;277;50.074;8.436;2022-07-10T08:30:20;18.20;99.90
582;DHT22;277;50.074;8.436;2022-07-10T08:32:47;18.20;99.90
582;DHT22;277;50.074;8.436;2022-07-10T08:35:15;18.20;99.90
582;DHT22;277;50.074;8.436;2022-07-10T08:37:43;18.00;99.90
582;DHT22;277;50.074;8.436;2022-07-10T08:40:12;17.90;99.90
582;DHT22;277;50.074;8.436;2022-07-10T08:42:40;17.70;99.90
582;DHT22;277;50.074;8.436;2022-07-10T08:45:12;17.70;99.90
582;DHT22;277;50.074;8.436;2022-07-10T08:47:42;18.00;99.90
582;DHT22;277;50.074;8.436;2022-07-10T08:50:15;18.50;99.90
582;DHT22;277;50.074;8.436;2022-07-10T08:52:44;19.00;99.90
582;DHT22;277;50.074;8.436;2022-07-10T08:55:17;19.10;99.90
582;DHT22;277;50.074;8.436;2022-07-10T08:57:45;19.20;99.90
582;DHT22;277;50.074;8.436;2022-07-10T09:00:15;19.00;99.90
582;DHT22;277;50.074;8.436;2022-07-10T09:02:43;18.70;99.90
582;DHT22;277;50.074;8.436;2022-07-10T09:05:11;18.70;99.90
582;DHT22;277;50.074;8.436;2022-07-10T09:07:38;18.50;99.90
582;DHT22;277;50.074;8.436;2022-07-10T09:10:08;18.60;99.90
582;DHT22;277;50.074;8.436;2022-07-10T09:12:49;18.50;99.90
582;DHT22;277;50.074;8.436;2022-07-10T09:15:19;18.80;99.90
582;DHT22;277;50.074;8.436;2022-07-10T09:17:52;19.00;99.90
582;DHT22;277;50.074;8.436;2022-07-10T09:20:27;19.00;99.90
582;DHT22;277;50.074;8.436;2022-07-10T09:22:56;19.00;99.90
582;DHT22;277;50.074;8.436;2022-07-10T09:25:29;18.80;99.90
582;DHT22;277;50.074;8.436;2022-07-10T09:27:57;18.80;99.90
582;DHT22;277;50.074;8.436;2022-07-10T09:30:34;18.80;99.90
582;DHT22;277;50.074;8.436;2022-07-10T09:33:16;18.90;99.90
582;DHT22;277;50.074;8.436;2022-07-10T09:35:54;18.80;99.90
582;DHT22;277;50.074;8.436;2022-07-10T09:38:47;18.70;99.90
582;DHT22;277;50.074;8.436;2022-07-10T09:41:19;18.60;99.90
582;DHT22;277;50.074;8.436;2022-07-10T09:43:48;19.00;99.90
582;DHT22;277;50.074;8.436;2022-07-10T09:46:18;19.50;99.90
582;DHT22;277;50.074;8.436;2022-07-10T09:48:45;20.30;99.90
582;DHT22;277;50.074;8.436;2022-07-10T09:51:13;20.70;98.50
582;DHT22;277;50.074;8.436;2022-07-10T09:53:41;20.90;98.60
582;DHT22;277;50.074;8.436;2022-07-10T09:56:10;21.20;98.60
582;DHT22;277;50.074;8.436;2022-07-10T09:58:38;21.20;98.90
582;DHT22;277;50.074;8.436;2022-07-10T10:01:08;21.30;98.00
582;DHT22;277;50.074;8.436;2022-07-10T10:03:38;21.20;97.80
582;DHT22;277;50.074;8.436;2022-07-10T10:06:09;21.00;98.80
582;DHT22;277;50.074;8.436;2022-07-10T10:08:43;20.80;98.80
582;DHT22;277;50.074;8.436;2022-07-10T10:11:13;20.70;99.20
582;DHT22;277;50.074;8.436;2022-07-10T10:13:41;20.10;99.50
582;DHT22;277;50.074;8.436;2022-07-10T10:16:10;19.80;99.30
582;DHT22;277;50.074;8.436;2022-07-10T10:18:39;19.40;99.90
582;DHT22;277;50.074;8.436;2022-07-10T10:21:28;19.30;99.90
582;DHT22;277;50.074;8.436;2022-07-10T10:23:55;19.40;99.90
582;DHT22;277;50.074;8.436;2022-07-10T10:26:23;19.50;99.90
582;DHT22;277;50.074;8.436;2022-07-10T10:28:51;19.70;99.90
582;DHT22;277;50.074;8.436;2022-07-10T10:31:20;19.80;99.90
582;DHT22;277;50.074;8.436;2022-07-10T10:33:51;20.00;99.80
582;DHT22;277;50.074;8.436;2022-07-10T10:39:11;20.50;98.70
582;DHT22;277;50.074;8.436;2022-07-10T10:41:40;20.80;99.80
582;DHT22;277;50.074;8.436;2022-07-10T10:47:06;21.70;97.50
582;DHT22;277;50.074;8.436;2022-07-10T10:49:48;22.30;97.00
582;DHT22;277;50.074;8.436;2022-07-10T10:52:16;22.20;96.90
582;DHT22;277;50.074;8.436;2022-07-10T10:55:03;22.10;97.10
582;DHT22;277;50.074;8.436;2022-07-10T10:57:35;22.10;96.40
582;DHT22;277;50.074;8.436;2022-07-10T11:00:06;21.70;96.60
582;DHT22;277;50.074;8.436;2022-07-10T11:02:35;21.60;97.20
582;DHT22;277;50.074;8.436;2022-07-10T11:07:53;21.80;96.60
582;DHT22;277;50.074;8.436;2022-07-10T11:10:27;22.40;96.30
582;DHT22;277;50.074;8.436;2022-07-10T11:12:58;22.60;96.00
582;DHT22;277;50.074;8.436;2022-07-10T11:15:27;22.50;95.60
582;DHT22;277;50.074;8.436;2022-07-10T11:17:56;22.40;96.30
582;DHT22;277;50.074;8.436;2022-07-10T11:20:24;22.50;96.20
582;DHT22;277;50.074;8.436;2022-07-10T11:22:57;22.80;95.80
582;DHT22;277;50.074;8.436;2022-07-10T11:25:32;22.80;95.40
582;DHT22;277;50.074;8.436;2022-07-10T11:28:08;22.70;95.60
582;DHT22;277;50.074;8.436;2022-07-10T11:30:42;22.50;96.00
582;DHT22;277;50.074;8.436;2022-07-10T11:33:10;22.50;97.60
582;DHT22;277;50.074;8.436;2022-07-10T11:35:39;22.60;96.40
582;DHT22;277;50.074;8.436;2022-07-10T11:38:08;23.20;96.00
582;DHT22;277;50.074;8.436;2022-07-10T11:40:36;23.40;95.00
582;DHT22;277;50.074;8.436;2022-07-10T11:43:04;23.70;94.90
582;DHT22;277;50.074;8.436;2022-07-10T11:45:33;24.00;94.40
582;DHT22;277;50.074;8.436;2022-07-10T11:48:03;24.40;94.00
582;DHT22;277;50.074;8.436;2022-07-10T11:50:34;24.90;93.00
582;DHT22;277;50.074;8.436;2022-07-10T11:53:03;24.80;92.50
582;DHT22;277;50.074;8.436;2022-07-10T11:55:32;24.40;92.00
582;DHT22;277;50.074;8.436;2022-07-10T11:58:12;24.60;92.50
582;DHT22;277;50.074;8.436;2022-07-10T12:00:40;24.60;91.40
582;DHT22;277;50.074;8.436;2022-07-10T12:03:16;24.50;92.10
582;DHT22;277;50.074;8.436;2022-07-10T12:05:44;24.20;91.80
582;DHT22;277;50.074;8.436;2022-07-10T12:08:12;24.00;91.90
582;DHT22;277;50.074;8.436;2022-07-10T12:10:42;23.70;92.00
582;DHT22;277;50.074;8.436;2022-07-10T12:13:11;23.60;92.50
582;DHT22;277;50.074;8.436;2022-07-10T12:15:39;24.00;92.10
582;DHT22;277;50.074;8.436;2022-07-10T12:18:08;24.00;92.20
582;DHT22;277;50.074;8.436;2022-07-10T12:20:36;23.90;92.40
582;DHT22;277;50.074;8.436;2022-07-10T12:23:05;23.80;92.20
582;DHT22;277;50.074;8.436;2022-07-10T12:25:32;23.40;92.50
582;DHT22;277;50.074;8.436;2022-07-10T12:28:02;23.70;92.90
582;DHT22;277;50.074;8.436;2022-07-10T12:30:37;24.10;92.70
582;DHT22;277;50.074;8.436;2022-07-10T12:33:06;24.10;92.10
582;DHT22;277;50.074;8.436;2022-07-10T12:35:44;23.90;92.30
582;DHT22;277;50.074;8.436;2022-07-10T12:38:14;24.00;92.70
582;DHT22;277;50.074;8.436;2022-07-10T12:40:42;23.80;92.20
582;DHT22;277;50.074;8.436;2022-07-10T12:43:11;23.80;92.30
582;DHT22;277;50.074;8.436;2022-07-10T12:45:39;24.00;92.60
582;DHT22;277;50.074;8.436;2022-07-10T12:48:06;24.40;92.50
582;DHT22;277;50.074;8.436;2022-07-10T12:50:34;24.50;92.10
582;DHT22;277;50.074;8.436;2022-07-10T12:53:12;25.00;91.70
582;DHT22;277;50.074;8.436;2022-07-10T12:55:40;25.00;91.70
582;DHT22;277;50.074;8.436;2022-07-10T12:58:08;24.70;91.60
582;DHT22;277;50.074;8.436;2022-07-10T13:00:44;24.20;92.30
582;DHT22;277;50.074;8.436;2022-07-10T13:03:16;24.00;92.50
582;DHT22;277;50.074;8.436;2022-07-10T13:05:45;23.80;92.80
582;DHT22;277;50.074;8.436;2022-07-10T13:08:14;24.20;92.80
582;DHT22;277;50.074;8.436;2022-07-10T13:10:44;24.50;91.90
582;DHT22;277;50.074;8.436;2022-07-10T13:13:12;25.10;92.90
582;DHT22;277;50.074;8.436;2022-07-10T13:15:40;25.60;91.70
582;DHT22;277;50.074;8.436;2022-07-10T13:18:14;25.70;90.60
582;DHT22;277;50.074;8.436;2022-07-10T13:20:44;25.80;90.50
582;DHT22;277;50.074;8.436;2022-07-10T13:23:12;26.00;91.30
582;DHT22;277;50.074;8.436;2022-07-10T13:25:40;25.80;90.50
582;DHT22;277;50.074;8.436;2022-07-10T13:28:09;26.00;90.20
582;DHT22;277;50.074;8.436;2022-07-10T13:30:38;25.70;90.20
582;DHT22;277;50.074;8.436;2022-07-10T13:33:05;24.90;92.20
582;DHT22;277;50.074;8.436;2022-07-10T13:35:35;24.40;91.50
582;DHT22;277;50.074;8.436;2022-07-10T13:38:03;24.00;91.80
582;DHT22;277;50.074;8.436;2022-07-10T13:40:32;23.80;92.10
582;DHT22;277;50.074;8.436;2022-07-10T13:43:00;23.70;92.70
582;DHT22;277;50.074;8.436;2022-07-10T13:45:28;23.30;92.60
582;DHT22;277;50.074;8.436;2022-07-10T13:48:00;23.30;93.00
582;DHT22;277;50.074;8.436;2022-07-10T13:50:28;23.20;93.10
582;DHT22;277;50.074;8.436;2022-07-10T13:52:57;23.30;93.10
582;DHT22;277;50.074;8.436;2022-07-10T13:55:24;23.30;92.90
582;DHT22;277;50.074;8.436;2022-07-10T13:57:52;23.00;93.20
582;DHT22;277;50.074;8.436;2022-07-10T14:00:20;22.80;93.80
582;DHT22;277;50.074;8.436;2022-07-10T14:02:48;22.80;93.70
582;DHT22;277;50.074;8.436;2022-07-10T14:05:16;23.00;94.00
582;DHT22;277;50.074;8.436;2022-07-10T14:07:43;23.10;94.80
582;DHT22;277;50.074;8.436;2022-07-10T14:10:12;23.00;93.70
582;DHT22;277;50.074;8.436;2022-07-10T14:12:41;22.70;94.30
582;DHT22;277;50.074;8.436;2022-07-10T14:15:09;22.60;94.40
582;DHT22;277;50.074;8.436;2022-07-10T14:17:37;22.30;94.80
582;DHT22;277;50.074;8.436;2022-07-10T14:20:05;22.20;95.60
582;DHT22;277;50.074;8.436;2022-07-10T14:22:33;22.20;95.80
582;DHT22;277;50.074;8.436;2022-07-10T14:25:01;22.20;96.90
582;DHT22;277;50.074;8.436;2022-07-10T14:27:31;22.20;96.00
582;DHT22;277;50.074;8.436;2022-07-10T14:29:59;22.10;96.20
582;DHT22;277;50.074;8.436;2022-07-10T14:32:26;22.00;96.30
582;DHT22;277;50.074;8.436;2022-07-10T14:34:54;21.80;96.70
582;DHT22;277;50.074;8.436;2022-07-10T14:37:22;21.80;96.80
582;DHT22;277;50.074;8.436;2022-07-10T14:39:50;21.80;96.80
582;DHT22;277;50.074;8.436;2022-07-10T14:42:18;21.80;97.10
582;DHT22;277;50.074;8.436;2022-07-10T14:44:47;21.70;97.20
582;DHT22;277;50.074;8.436;2022-07-10T14:47:15;21.70;97.10
582;DHT22;277;50.074;8.436;2022-07-10T14:49:43;21.70;97.40
582;DHT22;277;50.074;8.436;2022-07-10T14:52:11;21.70;97.70
582;DHT22;277;50.074;8.436;2022-07-10T14:54:40;21.90;97.30
582;DHT22;277;50.074;8.436;2022-07-10T14:57:07;22.10;97.20
582;DHT22;277;50.074;8.436;2022-07-10T14:59:35;22.40;97.40
582;DHT22;277;50.074;8.436;2022-07-10T15:02:05;22.40;97.20
582;DHT22;277;50.074;8.436;2022-07-10T15:04:33;22.80;96.90
582;DHT22;277;50.074;8.436;2022-07-10T15:07:01;23.00;96.80
582;DHT22;277;50.074;8.436;2022-07-10T15:09:29;23.20;96.40
582;DHT22;277;50.074;8.436;2022-07-10T15:11:57;23.00;96.20
582;DHT22;277;50.074;8.436;2022-07-10T15:14:25;23.20;96.40
582;DHT22;277;50.074;8.436;2022-07-10T15:16:54;23.50;96.40
582;DHT22;277;50.074;8.436;2022-07-10T15:19:23;23.80;95.80
582;DHT22;277;50.074;8.436;2022-07-10T15:21:51;23.90;95.80
582;DHT22;277;50.074;8.436;2022-07-10T15:24:18;23.70;95.80
582;DHT22;277;50.074;8.436;2022-07-10T15:26:46;23.80;95.50
582;DHT22;277;50.074;8.436;2022-07-10T15:29:14;23.90;95.80
582;DHT22;277;50.074;8.436;2022-07-10T15:31:42;24.10;95.40
582;DHT22;277;50.074;8.436;2022-07-10T15:34:10;24.20;95.60
582;DHT22;277;50.074;8.436;2022-07-10T15:36:42;23.80;95.60
582;DHT22;277;50.074;8.436;2022-07-10T15:39:12;23.70;95.90
582;DHT22;277;50.074;8.436;2022-07-10T15:41:40;23.60;95.50
582;DHT22;277;50.074;8.436;2022-07-10T15:44:12;23.60;95.80
582;DHT22;277;50.074;8.436;2022-07-10T15:46:39;23.60;96.20
582;DHT22;277;50.074;8.436;2022-07-10T15:49:08;23.50;96.30
582;DHT22;277;50.074;8.436;2022-07-10T15:51:37;23.60;96.10
582;DHT22;277;50.074;8.436;2022-07-10T15:54:07;23.50;96.40
582;DHT22;277;50.074;8.436;2022-07-10T15:56:35;23.00;96.70
582;DHT22;277;50.074;8.436;2022-07-10T15:59:04;22.70;97.00
582;DHT22;277;50.074;8.436;2022-07-10T16:01:32;22.50;97.50
582;DHT22;277;50.074;8.436;2022-07-10T16:04:00;22.60;97.80
582;DHT22;277;50.074;8.436;2022-07-10T16:06:28;22.50;97.60
582;DHT22;277;50.074;8.436;2022-07-10T16:08:56;22.50;97.70
582;DHT22;277;50.074;8.436;2022-07-10T16:11:25;22.30;98.20
582;DHT22;277;50.074;8.436;2022-07-10T16:13:52;22.40;98.10
582;DHT22;277;50.074;8.436;2022-07-10T16:16:20;22.70;98.20
582;DHT22;277;50.074;8.436;2022-07-10T16:18:48;22.90;98.00
582;DHT22;277;50.074;8.436;2022-07-10T16:21:19;22.80;97.90
582;DHT22;277;50.074;8.436;2022-07-10T16:23:47;22.70;98.10
582;DHT22;277;50.074;8.436;2022-07-10T16:26:15;22.70;98.20
582;DHT22;277;50.074;8.436;2022-07-10T16:28:46;22.50;98.10
582;DHT22;277;50.074;8.436;2022-07-10T16:31:16;22.40;98.70
582;DHT22;277;50.074;8.436;2022-07-10T16:33:44;22.30;99.00
582;DHT22;277;50.074;8.436;2022-07-10T16:36:13;22.40;99.00
582;DHT22;277;50.074;8.436;2022-07-10T16:38:41;22.70;99.00
582;DHT22;277;50.074;8.436;2022-07-10T16:41:09;22.50;98.60
582;DHT22;277;50.074;8.436;2022-07-10T16:43:36;22.30;98.90
582;DHT22;277;50.074;8.436;2022-07-10T16:46:06;21.90;99.00
582;DHT22;277;50.074;8.436;2022-07-10T16:48:34;21.80;99.50
582;DHT22;277;50.074;8.436;2022-07-10T16:51:02;21.80;99.80
582;DHT22;277;50.074;8.436;2022-07-10T16:53:30;21.70;99.70
582;DHT22;277;50.074;8.436;2022-07-10T16:55:58;21.70;99.90